ITY334 LIML-LIRA
Flight info
| Callsign | ITY334 |
|---|---|
| Flight time | 0h 45m |
| Altitude | 33000 |
| Route | LOGDI DCT LOMED DCT KUGIX DCT AMTEL DCT GITOD |
| Aircraft | A320/M-SDE3FGHIRWY/LB1 |
Departure
| Time | 2026-05-01 09:58 |
|---|---|
| Airport | Milano Linate Airport (LIML) |
Arrival
| Time | 2026-05-01 10:44 |
|---|---|
| Airport | Ciampino–G. B. Pastine International Airport (LIRA) |
| Time | Latitude | Longitude | Altitude | Speed | Heading |
|---|---|---|---|---|---|
| 2026-05-01 09:39 | 45.45975 | 9.27903 | 360 ft | 0 kts | 360° |
| 2026-05-01 09:49 | 45.45967 | 9.27903 | 363 ft | 2 kts | 359° |
| 2026-05-01 09:49 | 45.45950 | 9.27903 | 360 ft | 2 kts | 0° |
| 2026-05-01 09:49 | 45.45934 | 9.27902 | 360 ft | 2 kts | 3° |
| 2026-05-01 09:49 | 45.45917 | 9.27900 | 360 ft | 2 kts | 18° |
| 2026-05-01 09:50 | 45.45907 | 9.27886 | 360 ft | 1 kts | 91° |
| 2026-05-01 09:50 | 45.45907 | 9.27881 | 365 ft | 0 kts | 92° |
| 2026-05-01 09:52 | 45.45907 | 9.27889 | 360 ft | 5 kts | 90° |
| 2026-05-01 09:52 | 45.45889 | 9.27976 | 364 ft | 8 kts | 158° |
| 2026-05-01 09:52 | 45.45832 | 9.27983 | 362 ft | 8 kts | 180° |
| 2026-05-01 09:53 | 45.45784 | 9.27983 | 360 ft | 6 kts | 180° |
| 2026-05-01 09:53 | 45.45744 | 9.27983 | 365 ft | 5 kts | 180° |
| 2026-05-01 09:53 | 45.45698 | 9.27983 | 360 ft | 11 kts | 180° |
| 2026-05-01 09:53 | 45.45596 | 9.27980 | 364 ft | 18 kts | 180° |
| 2026-05-01 09:54 | 45.45442 | 9.27977 | 360 ft | 26 kts | 178° |
| 2026-05-01 09:54 | 45.45269 | 9.27894 | 362 ft | 28 kts | 202° |
| 2026-05-01 09:54 | 45.45068 | 9.27882 | 360 ft | 30 kts | 177° |
| 2026-05-01 09:54 | 45.44866 | 9.27934 | 365 ft | 27 kts | 166° |
| 2026-05-01 09:55 | 45.44675 | 9.27956 | 360 ft | 28 kts | 175° |
| 2026-05-01 09:55 | 45.44475 | 9.27982 | 362 ft | 29 kts | 176° |
| 2026-05-01 09:55 | 45.44271 | 9.28003 | 367 ft | 30 kts | 175° |
| 2026-05-01 09:55 | 45.44063 | 9.28024 | 360 ft | 30 kts | 175° |
| 2026-05-01 09:56 | 45.43852 | 9.28049 | 361 ft | 31 kts | 175° |
| 2026-05-01 09:56 | 45.43639 | 9.28070 | 362 ft | 31 kts | 175° |
| 2026-05-01 09:56 | 45.43457 | 9.28063 | 363 ft | 15 kts | 231° |
| 2026-05-01 09:56 | 45.43446 | 9.27982 | 361 ft | 9 kts | 265° |
| 2026-05-01 09:57 | 45.43451 | 9.27854 | 365 ft | 16 kts | 298° |
| 2026-05-01 09:57 | 45.43499 | 9.27813 | 365 ft | 0 kts | 354° |
| 2026-05-01 09:57 | 45.43507 | 9.27811 | 366 ft | 5 kts | 354° |
| 2026-05-01 09:57 | 45.43727 | 9.27789 | 365 ft | 73 kts | 355° |
| 2026-05-01 09:58 | 45.44498 | 9.27701 | 363 ft | 143 kts | 355° |
| 2026-05-01 09:58 | 45.45548 | 9.27574 | 890 ft | 147 kts | 359° |
| 2026-05-01 09:58 | 45.46590 | 9.27492 | 1527 ft | 156 kts | 1° |
| 2026-05-01 09:58 | 45.47710 | 9.27583 | 2158 ft | 168 kts | 9° |
| 2026-05-01 09:59 | 45.48920 | 9.27795 | 2783 ft | 182 kts | 11° |
| 2026-05-01 09:59 | 45.50207 | 9.28031 | 3495 ft | 189 kts | 11° |
| 2026-05-01 09:59 | 45.51514 | 9.28383 | 4143 ft | 194 kts | 22° |
| 2026-05-01 09:59 | 45.52679 | 9.29436 | 4718 ft | 204 kts | 49° |
| 2026-05-01 10:00 | 45.53352 | 9.31272 | 5288 ft | 218 kts | 81° |
| 2026-05-01 10:00 | 45.53131 | 9.33452 | 5906 ft | 233 kts | 117° |
| 2026-05-01 10:00 | 45.51992 | 9.35176 | 6520 ft | 249 kts | 141° |
| 2026-05-01 10:00 | 45.50556 | 9.36715 | 7070 ft | 267 kts | 142° |
| 2026-05-01 10:01 | 45.49020 | 9.38321 | 7715 ft | 279 kts | 141° |
| 2026-05-01 10:01 | 45.47441 | 9.39966 | 8600 ft | 282 kts | 141° |
| 2026-05-01 10:01 | 45.45876 | 9.41601 | 9519 ft | 285 kts | 141° |
| 2026-05-01 10:01 | 45.44273 | 9.43280 | 10403 ft | 287 kts | 141° |
| 2026-05-01 10:02 | 45.42635 | 9.45013 | 10978 ft | 302 kts | 141° |
| 2026-05-01 10:02 | 45.40935 | 9.46900 | 11420 ft | 318 kts | 139° |
| 2026-05-01 10:02 | 45.39164 | 9.48925 | 11930 ft | 332 kts | 138° |
| 2026-05-01 10:02 | 45.37355 | 9.51010 | 12497 ft | 338 kts | 138° |
| 2026-05-01 10:03 | 45.35519 | 9.53134 | 13229 ft | 343 kts | 137° |
| 2026-05-01 10:03 | 45.33654 | 9.55290 | 13964 ft | 348 kts | 137° |
| 2026-05-01 10:03 | 45.31765 | 9.57462 | 14626 ft | 352 kts | 137° |
| 2026-05-01 10:03 | 45.29849 | 9.59652 | 15326 ft | 354 kts | 137° |
| 2026-05-01 10:04 | 45.27922 | 9.61847 | 16026 ft | 356 kts | 137° |
| 2026-05-01 10:04 | 45.25999 | 9.64028 | 16721 ft | 358 kts | 137° |
| 2026-05-01 10:04 | 45.24024 | 9.66259 | 17428 ft | 361 kts | 137° |
| 2026-05-01 10:04 | 45.22055 | 9.68486 | 18127 ft | 363 kts | 136° |
| 2026-05-01 10:05 | 45.20074 | 9.70727 | 18771 ft | 366 kts | 136° |
| 2026-05-01 10:05 | 45.18105 | 9.72960 | 19325 ft | 369 kts | 136° |
| 2026-05-01 10:05 | 45.16063 | 9.75279 | 19859 ft | 373 kts | 136° |
| 2026-05-01 10:05 | 45.14029 | 9.77586 | 20400 ft | 377 kts | 136° |
| 2026-05-01 10:06 | 45.11967 | 9.79920 | 20911 ft | 381 kts | 136° |
| 2026-05-01 10:06 | 45.09884 | 9.82277 | 21433 ft | 386 kts | 136° |
| 2026-05-01 10:06 | 45.07779 | 9.84657 | 21949 ft | 390 kts | 136° |
| 2026-05-01 10:06 | 45.05647 | 9.87062 | 22467 ft | 394 kts | 136° |
| 2026-05-01 10:07 | 45.03491 | 9.89486 | 22978 ft | 398 kts | 136° |
| 2026-05-01 10:07 | 45.01308 | 9.91936 | 23490 ft | 402 kts | 136° |
| 2026-05-01 10:07 | 44.99107 | 9.94408 | 23974 ft | 406 kts | 136° |
| 2026-05-01 10:07 | 44.96885 | 9.96904 | 24385 ft | 410 kts | 136° |
| 2026-05-01 10:08 | 44.92412 | 10.01917 | 25202 ft | 416 kts | 136° |
| 2026-05-01 10:08 | 44.90138 | 10.04459 | 25627 ft | 419 kts | 136° |
| 2026-05-01 10:08 | 44.87846 | 10.07018 | 26026 ft | 422 kts | 136° |
| 2026-05-01 10:09 | 44.85540 | 10.09598 | 26403 ft | 425 kts | 136° |
| 2026-05-01 10:09 | 44.83216 | 10.12200 | 26786 ft | 428 kts | 136° |
| 2026-05-01 10:09 | 44.80878 | 10.14809 | 27159 ft | 431 kts | 136° |
| 2026-05-01 10:09 | 44.78517 | 10.17431 | 27525 ft | 434 kts | 136° |
| 2026-05-01 10:10 | 44.76135 | 10.20074 | 27873 ft | 437 kts | 136° |
| 2026-05-01 10:10 | 44.74554 | 10.21830 | 28099 ft | 439 kts | 136° |
| 2026-05-01 10:10 | 44.68898 | 10.28043 | 28927 ft | 446 kts | 138° |
| 2026-05-01 10:11 | 44.66385 | 10.30636 | 29244 ft | 450 kts | 139° |
| 2026-05-01 10:11 | 44.63823 | 10.33187 | 29567 ft | 453 kts | 140° |
| 2026-05-01 10:11 | 44.61232 | 10.35718 | 29872 ft | 456 kts | 140° |
| 2026-05-01 10:11 | 44.58610 | 10.38264 | 30172 ft | 459 kts | 140° |
| 2026-05-01 10:12 | 44.55986 | 10.40825 | 30453 ft | 462 kts | 140° |
| 2026-05-01 10:12 | 44.54240 | 10.42542 | 30604 ft | 463 kts | 140° |
| 2026-05-01 10:12 | 44.48063 | 10.48676 | 31177 ft | 468 kts | 139° |
| 2026-05-01 10:13 | 44.45408 | 10.51314 | 31411 ft | 470 kts | 139° |
| 2026-05-01 10:13 | 44.42770 | 10.53929 | 31655 ft | 471 kts | 140° |
| 2026-05-01 10:13 | 44.40094 | 10.56577 | 31894 ft | 473 kts | 140° |
| 2026-05-01 10:14 | 44.34725 | 10.61864 | 32570 ft | 471 kts | 140° |
| 2026-05-01 10:14 | 44.32051 | 10.64497 | 32901 ft | 470 kts | 140° |
| 2026-05-01 10:14 | 44.29377 | 10.67132 | 33209 ft | 470 kts | 140° |
| 2026-05-01 10:14 | 44.26708 | 10.69760 | 33305 ft | 470 kts | 140° |
| 2026-05-01 10:15 | 44.21355 | 10.75005 | 33305 ft | 470 kts | 140° |
| 2026-05-01 10:15 | 44.15988 | 10.80247 | 33310 ft | 472 kts | 140° |
| 2026-05-01 10:16 | 44.10613 | 10.85504 | 33317 ft | 473 kts | 140° |
| 2026-05-01 10:17 | 44.02514 | 10.93397 | 33327 ft | 475 kts | 140° |
| 2026-05-01 10:17 | 43.94347 | 11.01111 | 33341 ft | 481 kts | 146° |
| 2026-05-01 10:18 | 43.88441 | 11.05733 | 33326 ft | 493 kts | 147° |
| 2026-05-01 10:18 | 43.85425 | 11.08032 | 33329 ft | 498 kts | 147° |
| 2026-05-01 10:19 | 43.79306 | 11.12664 | 33338 ft | 504 kts | 148° |
| 2026-05-01 10:19 | 43.73138 | 11.17349 | 33327 ft | 506 kts | 147° |
| 2026-05-01 10:20 | 43.66982 | 11.22055 | 33173 ft | 501 kts | 147° |
| 2026-05-01 10:20 | 43.63976 | 11.24347 | 32915 ft | 487 kts | 147° |
| 2026-05-01 10:20 | 43.61048 | 11.26571 | 32663 ft | 474 kts | 147° |
| 2026-05-01 10:20 | 43.58196 | 11.28735 | 32412 ft | 462 kts | 147° |
| 2026-05-01 10:21 | 43.55411 | 11.30846 | 32156 ft | 452 kts | 147° |
| 2026-05-01 10:21 | 43.49990 | 11.34955 | 31672 ft | 442 kts | 147° |
| 2026-05-01 10:21 | 43.47305 | 11.36999 | 31417 ft | 441 kts | 147° |
| 2026-05-01 10:22 | 43.41949 | 11.41064 | 30925 ft | 438 kts | 147° |
| 2026-05-01 10:22 | 43.36624 | 11.45081 | 30444 ft | 435 kts | 147° |
| 2026-05-01 10:23 | 43.33973 | 11.47075 | 30163 ft | 434 kts | 147° |
| 2026-05-01 10:23 | 43.28706 | 11.51030 | 29598 ft | 429 kts | 147° |
| 2026-05-01 10:23 | 43.26096 | 11.52992 | 29332 ft | 427 kts | 147° |
| 2026-05-01 10:24 | 43.20926 | 11.56867 | 28681 ft | 419 kts | 148° |
| 2026-05-01 10:24 | 43.15839 | 11.60659 | 27743 ft | 413 kts | 148° |
| 2026-05-01 10:25 | 43.10868 | 11.64377 | 26805 ft | 407 kts | 148° |
| 2026-05-01 10:25 | 43.05887 | 11.68097 | 25834 ft | 403 kts | 148° |
| 2026-05-01 10:26 | 43.04256 | 11.69314 | 25496 ft | 402 kts | 148° |
| 2026-05-01 10:26 | 43.01807 | 11.71138 | 24990 ft | 401 kts | 149° |
| 2026-05-01 10:26 | 42.96907 | 11.74782 | 23963 ft | 400 kts | 149° |
| 2026-05-01 10:27 | 42.92029 | 11.78401 | 22876 ft | 397 kts | 149° |
| 2026-05-01 10:27 | 42.87206 | 11.81976 | 21885 ft | 392 kts | 149° |
| 2026-05-01 10:28 | 42.84807 | 11.83748 | 21398 ft | 391 kts | 150° |
| 2026-05-01 10:28 | 42.80050 | 11.87256 | 20424 ft | 388 kts | 150° |
| 2026-05-01 10:28 | 42.77682 | 11.89000 | 19937 ft | 386 kts | 150° |
| 2026-05-01 10:29 | 42.72969 | 11.92473 | 18977 ft | 384 kts | 150° |
| 2026-05-01 10:29 | 42.70620 | 11.94207 | 18489 ft | 384 kts | 150° |
| 2026-05-01 10:30 | 42.65947 | 11.97657 | 17527 ft | 379 kts | 150° |
| 2026-05-01 10:30 | 42.61351 | 12.01024 | 16634 ft | 374 kts | 150° |
| 2026-05-01 10:31 | 42.56808 | 12.04340 | 15812 ft | 368 kts | 150° |
| 2026-05-01 10:31 | 42.52909 | 12.07183 | 14977 ft | 354 kts | 150° |
| 2026-05-01 10:32 | 42.48714 | 12.10235 | 14125 ft | 331 kts | 150° |
| 2026-05-01 10:32 | 42.46718 | 12.11690 | 13714 ft | 323 kts | 150° |
| 2026-05-01 10:32 | 42.42765 | 12.14575 | 12914 ft | 322 kts | 149° |
| 2026-05-01 10:33 | 42.38818 | 12.17452 | 12120 ft | 322 kts | 149° |
| 2026-05-01 10:33 | 42.34867 | 12.20318 | 11309 ft | 322 kts | 150° |
| 2026-05-01 10:34 | 42.32900 | 12.21742 | 10909 ft | 321 kts | 149° |
| 2026-05-01 10:34 | 42.30931 | 12.23167 | 10485 ft | 321 kts | 149° |
| 2026-05-01 10:34 | 42.28961 | 12.24599 | 10096 ft | 320 kts | 149° |
| 2026-05-01 10:35 | 42.25244 | 12.27637 | 9564 ft | 304 kts | 148° |
| 2026-05-01 10:35 | 42.23419 | 12.28962 | 9489 ft | 291 kts | 150° |
| 2026-05-01 10:35 | 42.21628 | 12.30174 | 9418 ft | 288 kts | 151° |
| 2026-05-01 10:35 | 42.19838 | 12.31377 | 9156 ft | 286 kts | 151° |
| 2026-05-01 10:36 | 42.16314 | 12.33802 | 8399 ft | 282 kts | 150° |
| 2026-05-01 10:36 | 42.14600 | 12.35081 | 8020 ft | 279 kts | 143° |
| 2026-05-01 10:36 | 42.12978 | 12.36508 | 7639 ft | 278 kts | 147° |
| 2026-05-01 10:37 | 42.11287 | 12.37759 | 7254 ft | 276 kts | 150° |
| 2026-05-01 10:37 | 42.08827 | 12.39459 | 6726 ft | 261 kts | 150° |
| 2026-05-01 10:37 | 42.07249 | 12.40509 | 6376 ft | 248 kts | 149° |
| 2026-05-01 10:38 | 42.05756 | 12.41571 | 6021 ft | 238 kts | 149° |
| 2026-05-01 10:38 | 42.04289 | 12.42604 | 5554 ft | 236 kts | 150° |
| 2026-05-01 10:38 | 42.02863 | 12.43598 | 5241 ft | 227 kts | 150° |
| 2026-05-01 10:38 | 42.01464 | 12.44569 | 4941 ft | 225 kts | 150° |
| 2026-05-01 10:39 | 42.00089 | 12.45525 | 4640 ft | 224 kts | 150° |
| 2026-05-01 10:39 | 41.98685 | 12.46502 | 4336 ft | 225 kts | 150° |
| 2026-05-01 10:39 | 41.97285 | 12.47474 | 4030 ft | 227 kts | 150° |
| 2026-05-01 10:39 | 41.95888 | 12.48444 | 3729 ft | 230 kts | 150° |
| 2026-05-01 10:40 | 41.94465 | 12.49430 | 3420 ft | 229 kts | 151° |
| 2026-05-01 10:40 | 41.93077 | 12.50392 | 3120 ft | 218 kts | 150° |
| 2026-05-01 10:40 | 41.91753 | 12.51310 | 2843 ft | 210 kts | 151° |
| 2026-05-01 10:40 | 41.90507 | 12.52173 | 2564 ft | 193 kts | 151° |
| 2026-05-01 10:41 | 41.89362 | 12.52964 | 2310 ft | 177 kts | 151° |
| 2026-05-01 10:41 | 41.88310 | 12.53692 | 2089 ft | 164 kts | 150° |
| 2026-05-01 10:41 | 41.86469 | 12.54967 | 1687 ft | 154 kts | 150° |
| 2026-05-01 10:42 | 41.85529 | 12.55619 | 1492 ft | 149 kts | 150° |
| 2026-05-01 10:42 | 41.84615 | 12.56249 | 1283 ft | 145 kts | 152° |
| 2026-05-01 10:42 | 41.83711 | 12.56842 | 1045 ft | 144 kts | 150° |
| 2026-05-01 10:42 | 41.82829 | 12.57464 | 852 ft | 144 kts | 148° |
| 2026-05-01 10:43 | 41.81959 | 12.58089 | 685 ft | 142 kts | 151° |
| 2026-05-01 10:43 | 41.81085 | 12.58684 | 526 ft | 140 kts | 150° |
| 2026-05-01 10:43 | 41.80294 | 12.59224 | 410 ft | 130 kts | 149° |
| 2026-05-01 10:43 | 41.79721 | 12.59635 | 407 ft | 57 kts | 151° |
| 2026-05-01 10:44 | 41.79431 | 12.59833 | 411 ft | 44 kts | 151° |
| 2026-05-01 10:44 | 41.79234 | 12.59935 | 410 ft | 20 kts | 148° |
| 2026-05-01 10:44 | 41.79122 | 12.60044 | 411 ft | 20 kts | 153° |
| 2026-05-01 10:44 | 41.79049 | 12.60013 | 410 ft | 11 kts | 251° |
| 2026-05-01 10:45 | 41.79017 | 12.59899 | 403 ft | 13 kts | 242° |
| 2026-05-01 10:45 | 41.78990 | 12.59788 | 404 ft | 12 kts | 259° |
| 2026-05-01 10:45 | 41.79022 | 12.59735 | 406 ft | 7 kts | 328° |
| 2026-05-01 10:45 | 41.79060 | 12.59711 | 406 ft | 5 kts | 336° |
| 2026-05-01 10:46 | 41.79093 | 12.59696 | 406 ft | 5 kts | 340° |
| 2026-05-01 10:46 | 41.79120 | 12.59682 | 405 ft | 4 kts | 339° |
| 2026-05-01 10:46 | 41.79140 | 12.59672 | 406 ft | 3 kts | 339° |